Página principal
METAR-TAF:

METAR-TAF

Aeroportos :

Dakhla, Marrocos

latitude: 23-43-05N, longitude: 015-55-55W, altura: 11 m

Observação actual do tempo

O boletim foi feito há 44 minutos, às 21:00 UTC
Vento 17 kt de nor-nordeste
Temperatura 17°C
Humidade 82%
Pressão 1019 hPa
Visibilidade: 6000 m

METAR: GMMH 172100Z 02017KT 6000 NSC 17/14 Q1019 NOSIG

Hora: 21:44 (21:44 UTC)

Previsão

O boletim foi feito há 4 horas e 44 minutos, às 17:00 UTC
Previsão válida de 17 às 18 UTC a 18 às 24 UTC
Vento 22 kt de norte
Visibilidade: 8000 m

TAF: GMMH 171700Z 1718/1824 01022KT 8000 NSC

Observações e previsões do tempo de mais de 4000 aeroportos (mensagens METAR e TAF).

As estações disponíveis são os pontos amarelos e vermelhos sobre o mapa.

Mova o rato sobre o mapa para ver o nome da estação.

Depois clique no ponto para visualizar as observações e previsões meteorológicas.

Para alterar o mapa : clique nos botões verdes com uma cruz preta para aumentar o zoom; no botão verde com uma pitada de zoom; ou nas setas verdes para mapas adjacentes.


METAR-TAF: